sensor_id;sensor_type;location;lat;lon;timestamp;pressure;altitude;pressure_sealevel;temperature;humidity
64792;BME280;51226;47.504;19.074;2022-11-06T00:00:48;100268.94;;;11.21;89.18
64792;BME280;51226;47.504;19.074;2022-11-06T00:03:51;100268.94;;;11.21;89.23
64792;BME280;51226;47.504;19.074;2022-11-06T00:06:54;100275.09;;;11.23;89.29
64792;BME280;51226;47.504;19.074;2022-11-06T00:09:57;100275.97;;;11.24;89.29
64792;BME280;51226;47.504;19.074;2022-11-06T00:13:00;100276.19;;;11.30;88.69
64792;BME280;51226;47.504;19.074;2022-11-06T00:16:04;100276.03;;;11.25;88.97
64792;BME280;51226;47.504;19.074;2022-11-06T00:19:08;100279.62;;;11.29;88.99
64792;BME280;51226;47.504;19.074;2022-11-06T00:22:11;100281.03;;;11.19;89.51
64792;BME280;51226;47.504;19.074;2022-11-06T00:25:14;100272.44;;;11.22;89.45
64792;BME280;51226;47.504;19.074;2022-11-06T00:28:18;100281.13;;;11.22;89.61
64792;BME280;51226;47.504;19.074;2022-11-06T00:31:23;100277.66;;;11.22;89.70
64792;BME280;51226;47.504;19.074;2022-11-06T00:34:26;100275.09;;;11.23;89.73
64792;BME280;51226;47.504;19.074;2022-11-06T00:37:29;100275.19;;;11.26;89.45
64792;BME280;51226;47.504;19.074;2022-11-06T00:40:32;100276.81;;;11.23;89.04
64792;BME280;51226;47.504;19.074;2022-11-06T00:43:35;100270.59;;;11.19;89.17
64792;BME280;51226;47.504;19.074;2022-11-06T00:46:38;100276.72;;;11.20;89.42
64792;BME280;51226;47.504;19.074;2022-11-06T00:49:41;100271.44;;;11.18;89.42
64792;BME280;51226;47.504;19.074;2022-11-06T00:52:44;100273.25;;;11.21;89.36
64792;BME280;51226;47.504;19.074;2022-11-06T00:55:46;100275.09;;;11.23;88.55
64792;BME280;51226;47.504;19.074;2022-11-06T00:58:50;100275.81;;;11.19;88.99
64792;BME280;51226;47.504;19.074;2022-11-06T01:01:53;100279.28;;;11.18;89.33
64792;BME280;51226;47.504;19.074;2022-11-06T01:04:56;100279.44;;;11.23;89.32
64792;BME280;51226;47.504;19.074;2022-11-06T01:07:59;100286.34;;;11.22;89.36
64792;BME280;51226;47.504;19.074;2022-11-06T01:14:11;100284.56;;;11.20;89.19
64792;BME280;51226;47.504;19.074;2022-11-06T01:17:14;100283.69;;;11.21;89.44
64792;BME280;51226;47.504;19.074;2022-11-06T01:20:17;100277.66;;;11.22;89.61
64792;BME280;51226;47.504;19.074;2022-11-06T01:23:20;100280.25;;;11.22;89.72
64792;BME280;51226;47.504;19.074;2022-11-06T01:26:25;100288.97;;;11.22;89.83
64792;BME280;51226;47.504;19.074;2022-11-06T01:29:40;100292.53;;;11.24;89.82
64792;BME280;51226;47.504;19.074;2022-11-06T01:32:42;100287.31;;;11.24;89.69
64792;BME280;51226;47.504;19.074;2022-11-06T01:35:50;100287.22;;;11.21;89.65
64792;BME280;51226;47.504;19.074;2022-11-06T01:38:55;100280.16;;;11.19;89.71
64792;BME280;51226;47.504;19.074;2022-11-06T01:41:58;100288.09;;;11.22;89.57
64792;BME280;51226;47.504;19.074;2022-11-06T01:45:25;100287.00;;;11.15;89.87
64792;BME280;51226;47.504;19.074;2022-11-06T01:48:31;100283.56;;;11.16;90.02
64792;BME280;51226;47.504;19.074;2022-11-06T01:51:39;100284.44;;;11.17;90.32
64792;BME280;51226;47.504;19.074;2022-11-06T01:54:45;100288.84;;;11.18;90.35
64792;BME280;51226;47.504;19.074;2022-11-06T01:57:50;100289.59;;;11.15;90.57
64792;BME280;51226;47.504;19.074;2022-11-06T02:00:53;100290.66;;;11.20;90.44
64792;BME280;51226;47.504;19.074;2022-11-06T02:03:58;100293.19;;;11.19;90.43
64792;BME280;51226;47.504;19.074;2022-11-06T02:07:04;100291.41;;;11.16;90.44
64792;BME280;51226;47.504;19.074;2022-11-06T02:10:08;100290.47;;;11.16;90.60
64792;BME280;51226;47.504;19.074;2022-11-06T02:13:14;100294.81;;;11.15;90.51
64792;BME280;51226;47.504;19.074;2022-11-06T02:16:45;100299.13;;;11.13;90.74
64792;BME280;51226;47.504;19.074;2022-11-06T02:20:01;100299.16;;;11.15;90.69
64792;BME280;51226;47.504;19.074;2022-11-06T02:23:36;100307.87;;;11.15;90.77
64792;BME280;51226;47.504;19.074;2022-11-06T02:30:11;100301.56;;;11.08;90.96
64792;BME280;51226;47.504;19.074;2022-11-06T02:33:19;100301.63;;;11.10;91.12
64792;BME280;51226;47.504;19.074;2022-11-06T02:36:29;100305.03;;;11.09;91.20
64792;BME280;51226;47.504;19.074;2022-11-06T02:39:35;100315.53;;;11.10;91.28
64792;BME280;51226;47.504;19.074;2022-11-06T02:42:43;100322.37;;;11.07;91.06
64792;BME280;51226;47.504;19.074;2022-11-06T02:45:55;100318.91;;;11.06;91.32
64792;BME280;51226;47.504;19.074;2022-11-06T02:49:28;100325.09;;;11.10;90.91
64792;BME280;51226;47.504;19.074;2022-11-06T02:56:20;100324.16;;;11.08;91.38
64792;BME280;51226;47.504;19.074;2022-11-06T02:59:28;100339.88;;;11.09;91.35
64792;BME280;51226;47.504;19.074;2022-11-06T03:02:37;100335.50;;;11.08;91.55
64792;BME280;51226;47.504;19.074;2022-11-06T03:05:49;100333.75;;;11.09;91.57
64792;BME280;51226;47.504;19.074;2022-11-06T03:09:00;100335.50;;;11.08;91.10
64792;BME280;51226;47.504;19.074;2022-11-06T03:12:24;100338.87;;;11.06;91.64
64792;BME280;51226;47.504;19.074;2022-11-06T03:15:34;100345.97;;;11.10;90.87
64792;BME280;51226;47.504;19.074;2022-11-06T03:18:59;100351.88;;;11.04;91.72
64792;BME280;51226;47.504;19.074;2022-11-06T03:25:43;100352.03;;;11.09;91.74
64792;BME280;51226;47.504;19.074;2022-11-06T03:32:14;100357.25;;;11.09;91.94
64792;BME280;51226;47.504;19.074;2022-11-06T03:35:30;100362.47;;;11.09;91.99
64792;BME280;51226;47.504;19.074;2022-11-06T03:38:42;100369.59;;;11.13;91.77
64792;BME280;51226;47.504;19.074;2022-11-06T03:42:00;100367.84;;;11.13;91.92
64792;BME280;51226;47.504;19.074;2022-11-06T03:45:08;100373.03;;;11.12;92.01
64792;BME280;51226;47.504;19.074;2022-11-06T03:48:39;100371.41;;;11.16;92.12
64792;BME280;51226;47.504;19.074;2022-11-06T03:51:51;100375.84;;;11.18;92.06
64792;BME280;51226;47.504;19.074;2022-11-06T03:55:04;100373.94;;;11.14;92.16
64792;BME280;51226;47.504;19.074;2022-11-06T03:58:14;100376.50;;;11.12;92.18
64792;BME280;51226;47.504;19.074;2022-11-06T04:01:24;100373.94;;;11.14;92.03
64792;BME280;51226;47.504;19.074;2022-11-06T04:07:40;100380.97;;;11.15;92.11
64792;BME280;51226;47.504;19.074;2022-11-06T04:11:05;100381.91;;;11.17;91.85
64792;BME280;51226;47.504;19.074;2022-11-06T04:14:29;100388.91;;;11.18;91.54
64792;BME280;51226;47.504;19.074;2022-11-06T04:17:34;100382.69;;;11.15;91.88
64792;BME280;51226;47.504;19.074;2022-11-06T04:20:37;100389.63;;;11.14;91.86
64792;BME280;51226;47.504;19.074;2022-11-06T04:24:08;100387.88;;;11.13;91.90
64792;BME280;51226;47.504;19.074;2022-11-06T04:34:37;100385.19;;;11.11;92.26
64792;BME280;51226;47.504;19.074;2022-11-06T04:41:16;100387.69;;;11.08;92.09
64792;BME280;51226;47.504;19.074;2022-11-06T04:44:31;100382.47;;;11.08;92.29
64792;BME280;51226;47.504;19.074;2022-11-06T04:47:36;100385.13;;;11.10;92.31
64792;BME280;51226;47.504;19.074;2022-11-06T04:50:52;100375.47;;;11.07;92.44
64792;BME280;51226;47.504;19.074;2022-11-06T04:53:57;100380.72;;;11.09;92.26
64792;BME280;51226;47.504;19.074;2022-11-06T04:57:00;100388.63;;;11.10;91.77
64792;BME280;51226;47.504;19.074;2022-11-06T05:00:03;100378.97;;;11.08;91.71
64792;BME280;51226;47.504;19.074;2022-11-06T05:03:07;100391.91;;;11.05;91.92
64792;BME280;51226;47.504;19.074;2022-11-06T05:06:09;100391.12;;;11.07;91.56
64792;BME280;51226;47.504;19.074;2022-11-06T05:09:12;100388.50;;;11.07;91.56
64792;BME280;51226;47.504;19.074;2022-11-06T05:12:15;100387.50;;;11.04;91.78
64792;BME280;51226;47.504;19.074;2022-11-06T05:15:18;100393.66;;;11.06;91.83
64792;BME280;51226;47.504;19.074;2022-11-06T05:18:20;100393.84;;;11.10;91.54
64792;BME280;51226;47.504;19.074;2022-11-06T05:21:23;100394.69;;;11.09;91.29
64792;BME280;51226;47.504;19.074;2022-11-06T05:24:44;100402.66;;;11.14;91.23
64792;BME280;51226;47.504;19.074;2022-11-06T05:27:47;100394.00;;;11.15;91.11
64792;BME280;51226;47.504;19.074;2022-11-06T05:30:50;100405.34;;;11.16;90.77
64792;BME280;51226;47.504;19.074;2022-11-06T05:33:52;100407.06;;;11.15;90.80
64792;BME280;51226;47.504;19.074;2022-11-06T05:36:56;100412.12;;;11.10;90.83
64792;BME280;51226;47.504;19.074;2022-11-06T05:39:58;100420.75;;;11.08;91.08
64792;BME280;51226;47.504;19.074;2022-11-06T05:43:01;100422.50;;;11.09;91.07
64792;BME280;51226;47.504;19.074;2022-11-06T05:46:04;100418.25;;;11.11;90.76
64792;BME280;51226;47.504;19.074;2022-11-06T05:49:17;100420.84;;;11.11;90.79
64792;BME280;51226;47.504;19.074;2022-11-06T05:52:20;100430.31;;;11.09;90.96
64792;BME280;51226;47.504;19.074;2022-11-06T05:55:23;100433.00;;;11.10;90.93
64792;BME280;51226;47.504;19.074;2022-11-06T05:58:26;100439.06;;;11.09;90.93
64792;BME280;51226;47.504;19.074;2022-11-06T06:01:31;100443.38;;;11.09;90.73
64792;BME280;51226;47.504;19.074;2022-11-06T06:04:34;100443.38;;;11.09;90.60
64792;BME280;51226;47.504;19.074;2022-11-06T06:07:37;100438.84;;;11.03;90.70
64792;BME280;51226;47.504;19.074;2022-11-06T06:10:43;100446.84;;;11.08;90.76
64792;BME280;51226;47.504;19.074;2022-11-06T06:13:46;100450.28;;;11.07;90.91
64792;BME280;51226;47.504;19.074;2022-11-06T06:16:50;100453.69;;;11.06;90.89
64792;BME280;51226;47.504;19.074;2022-11-06T06:19:52;100460.72;;;11.07;90.71
64792;BME280;51226;47.504;19.074;2022-11-06T06:22:56;100464.94;;;11.03;90.66
64792;BME280;51226;47.504;19.074;2022-11-06T06:25:59;100469.34;;;11.06;90.65
64792;BME280;51226;47.504;19.074;2022-11-06T06:29:02;100468.47;;;11.05;90.47
64792;BME280;51226;47.504;19.074;2022-11-06T06:32:05;100485.00;;;11.04;90.62
64792;BME280;51226;47.504;19.074;2022-11-06T06:35:08;100478.97;;;11.07;90.56
64792;BME280;51226;47.504;19.074;2022-11-06T06:38:11;100482.47;;;11.07;90.67
64792;BME280;51226;47.504;19.074;2022-11-06T06:41:14;100486.81;;;11.07;90.73
64792;BME280;51226;47.504;19.074;2022-11-06T06:44:17;100487.09;;;11.15;90.08
64792;BME280;51226;47.504;19.074;2022-11-06T06:47:20;100501.72;;;11.09;90.27
64792;BME280;51226;47.504;19.074;2022-11-06T06:50:22;100497.38;;;11.10;90.74
64792;BME280;51226;47.504;19.074;2022-11-06T06:53:26;100494.87;;;11.13;90.76
64792;BME280;51226;47.504;19.074;2022-11-06T06:56:29;100508.00;;;11.15;90.75
64792;BME280;51226;47.504;19.074;2022-11-06T06:59:32;100511.34;;;11.12;90.31
64792;BME280;51226;47.504;19.074;2022-11-06T07:02:34;100512.31;;;11.14;90.25
64792;BME280;51226;47.504;19.074;2022-11-06T07:05:37;100515.75;;;11.13;90.34
64792;BME280;51226;47.504;19.074;2022-11-06T07:08:40;100512.34;;;11.16;90.23
64792;BME280;51226;47.504;19.074;2022-11-06T07:11:43;100514.91;;;11.14;90.05
64792;BME280;51226;47.504;19.074;2022-11-06T07:14:46;100516.03;;;11.21;89.87
64792;BME280;51226;47.504;19.074;2022-11-06T07:17:49;100510.94;;;11.24;89.77
64792;BME280;51226;47.504;19.074;2022-11-06T07:20:51;100517.16;;;11.27;89.72
64792;BME280;51226;47.504;19.074;2022-11-06T07:23:54;100521.66;;;11.31;89.22
64792;BME280;51226;47.504;19.074;2022-11-06T07:26:57;100518.13;;;11.29;89.79
64792;BME280;51226;47.504;19.074;2022-11-06T07:30:00;100521.66;;;11.31;89.55
64792;BME280;51226;47.504;19.074;2022-11-06T07:33:04;100523.41;;;11.31;89.69
64792;BME280;51226;47.504;19.074;2022-11-06T07:36:09;100524.28;;;11.31;89.84
64792;BME280;51226;47.504;19.074;2022-11-06T07:39:12;100526.22;;;11.37;89.67
64792;BME280;51226;47.504;19.074;2022-11-06T07:42:15;100524.47;;;11.36;89.66
64792;BME280;51226;47.504;19.074;2022-11-06T07:45:32;100535.84;;;11.38;89.81
64792;BME280;51226;47.504;19.074;2022-11-06T07:48:36;100539.44;;;11.42;89.45
64792;BME280;51226;47.504;19.074;2022-11-06T07:51:38;100535.97;;;11.41;89.55
64792;BME280;51226;47.504;19.074;2022-11-06T07:54:41;100529.06;;;11.43;89.63
64792;BME280;51226;47.504;19.074;2022-11-06T07:57:44;100531.84;;;11.48;89.55
64792;BME280;51226;47.504;19.074;2022-11-06T08:00:52;100536.41;;;11.54;89.29
64792;BME280;51226;47.504;19.074;2022-11-06T08:03:55;100533.09;;;11.58;89.27
64792;BME280;51226;47.504;19.074;2022-11-06T08:06:58;100536.75;;;11.63;89.00
64792;BME280;51226;47.504;19.074;2022-11-06T08:10:02;100530.59;;;11.62;88.93
64792;BME280;51226;47.504;19.074;2022-11-06T08:13:06;100535.13;;;11.66;88.69
64792;BME280;51226;47.504;19.074;2022-11-06T08:16:11;100543.09;;;11.70;88.60
64792;BME280;51226;47.504;19.074;2022-11-06T08:19:14;100539.72;;;11.74;88.36
64792;BME280;51226;47.504;19.074;2022-11-06T08:22:17;100534.50;;;11.74;88.21
64792;BME280;51226;47.504;19.074;2022-11-06T08:25:20;100541.41;;;11.72;87.92
64792;BME280;51226;47.504;19.074;2022-11-06T08:28:24;100543.97;;;11.70;87.83
64792;BME280;51226;47.504;19.074;2022-11-06T08:31:27;100547.50;;;11.72;87.56
64792;BME280;51226;47.504;19.074;2022-11-06T08:34:33;100545.00;;;11.75;87.53
64792;BME280;51226;47.504;19.074;2022-11-06T08:37:36;100546.00;;;11.79;87.31
64792;BME280;51226;47.504;19.074;2022-11-06T08:40:39;100550.28;;;11.77;86.96
64792;BME280;51226;47.504;19.074;2022-11-06T08:43:42;100552.97;;;11.78;86.91
64792;BME280;51226;47.504;19.074;2022-11-06T08:46:47;100553.13;;;11.83;86.74
64792;BME280;51226;47.504;19.074;2022-11-06T08:49:53;100549.03;;;11.90;85.84
64792;BME280;51226;47.504;19.074;2022-11-06T08:52:59;100551.53;;;11.86;86.11
64792;BME280;51226;47.504;19.074;2022-11-06T08:56:05;100546.28;;;11.86;86.34
64792;BME280;51226;47.504;19.074;2022-11-06T08:59:08;100547.28;;;11.90;86.35
64792;BME280;51226;47.504;19.074;2022-11-06T09:02:12;100549.13;;;11.93;85.87
64792;BME280;51226;47.504;19.074;2022-11-06T09:05:16;100550.88;;;11.92;85.91
64792;BME280;51226;47.504;19.074;2022-11-06T09:08:18;100554.34;;;11.91;85.92
64792;BME280;51226;47.504;19.074;2022-11-06T09:11:21;100554.34;;;11.91;85.71
64792;BME280;51226;47.504;19.074;2022-11-06T09:14:24;100550.03;;;11.93;85.73
64792;BME280;51226;47.504;19.074;2022-11-06T09:17:28;100547.69;;;12.01;85.52
64792;BME280;51226;47.504;19.074;2022-11-06T09:20:30;100549.63;;;12.07;85.46
64792;BME280;51226;47.504;19.074;2022-11-06T09:23:33;100547.19;;;12.13;84.70
64792;BME280;51226;47.504;19.074;2022-11-06T09:26:36;100536.09;;;12.18;84.92
64792;BME280;51226;47.504;19.074;2022-11-06T09:29:39;100543.34;;;12.27;85.04
64792;BME280;51226;47.504;19.074;2022-11-06T09:32:49;100546.34;;;12.38;84.13
64792;BME280;51226;47.504;19.074;2022-11-06T09:35:53;100547.31;;;12.41;84.82
64792;BME280;51226;47.504;19.074;2022-11-06T09:38:55;100541.59;;;12.53;84.47
64792;BME280;51226;47.504;19.074;2022-11-06T09:42:00;100535.87;;;12.65;84.03
64792;BME280;51226;47.504;19.074;2022-11-06T09:48:41;100528.75;;;12.88;82.89
64792;BME280;51226;47.504;19.074;2022-11-06T09:52:06;100534.25;;;12.97;81.79
64792;BME280;51226;47.504;19.074;2022-11-06T09:55:28;100530.19;;;13.07;81.01
64792;BME280;51226;47.504;19.074;2022-11-06T09:58:35;100534.75;;;13.14;80.91
64792;BME280;51226;47.504;19.074;2022-11-06T10:01:59;100537.56;;;13.21;80.60
64792;BME280;51226;47.504;19.074;2022-11-06T10:05:12;100528.09;;;13.26;80.32
64792;BME280;51226;47.504;19.074;2022-11-06T10:08:24;100524.22;;;13.40;79.77
64792;BME280;51226;47.504;19.074;2022-11-06T10:21:50;100514.75;;;14.11;77.05
64792;BME280;51226;47.504;19.074;2022-11-06T10:25:17;100510.75;;;14.26;75.12
64792;BME280;51226;47.504;19.074;2022-11-06T10:28:37;100504.78;;;14.32;74.60
64792;BME280;51226;47.504;19.074;2022-11-06T10:31:58;100505.06;;;14.44;73.36
64792;BME280;51226;47.504;19.074;2022-11-06T10:35:13;100511.19;;;14.43;73.91
64792;BME280;51226;47.504;19.074;2022-11-06T10:38:22;100509.31;;;14.39;74.43
64792;BME280;51226;47.504;19.074;2022-11-06T10:41:31;100511.78;;;14.32;74.66
64792;BME280;51226;47.504;19.074;2022-11-06T10:44:38;100502.78;;;14.22;74.63
64792;BME280;51226;47.504;19.074;2022-11-06T10:47:55;100510.34;;;14.09;75.15
64792;BME280;51226;47.504;19.074;2022-11-06T10:51:20;100505.69;;;13.99;75.37
64792;BME280;51226;47.504;19.074;2022-11-06T10:54:49;100500.25;;;13.90;75.68
64792;BME280;51226;47.504;19.074;2022-11-06T11:01:12;100485.78;;;13.73;75.97
64792;BME280;51226;47.504;19.074;2022-11-06T11:04:15;100487.59;;;13.75;75.24
64792;BME280;51226;47.504;19.074;2022-11-06T11:07:18;100492.53;;;13.64;76.37
64792;BME280;51226;47.504;19.074;2022-11-06T11:10:24;100485.50;;;13.62;76.94
64792;BME280;51226;47.504;19.074;2022-11-06T11:13:28;100482.78;;;13.59;76.63
64792;BME280;51226;47.504;19.074;2022-11-06T11:16:34;100484.41;;;13.53;76.99
64792;BME280;51226;47.504;19.074;2022-11-06T11:19:40;100478.25;;;13.53;77.42
64792;BME280;51226;47.504;19.074;2022-11-06T11:22:43;100481.56;;;13.46;77.55
64792;BME280;51226;47.504;19.074;2022-11-06T11:25:51;100483.25;;;13.44;77.76
64792;BME280;51226;47.504;19.074;2022-11-06T11:29:32;100484.03;;;13.41;78.11
64792;BME280;51226;47.504;19.074;2022-11-06T11:32:35;100481.50;;;13.44;77.46
64792;BME280;51226;47.504;19.074;2022-11-06T11:35:38;100482.09;;;13.34;77.08
64792;BME280;51226;47.504;19.074;2022-11-06T11:38:41;100484.50;;;13.28;77.74
64792;BME280;51226;47.504;19.074;2022-11-06T11:41:44;100482.84;;;13.30;77.07
64792;BME280;51226;47.504;19.074;2022-11-06T11:48:16;100473.09;;;13.26;78.45
64792;BME280;51226;47.504;19.074;2022-11-06T11:51:29;100467.22;;;13.33;78.70
64792;BME280;51226;47.504;19.074;2022-11-06T11:54:34;100472.72;;;13.42;78.26
64792;BME280;51226;47.504;19.074;2022-11-06T11:57:43;100474.56;;;13.45;78.38
64792;BME280;51226;47.504;19.074;2022-11-06T12:00:55;100466.81;;;13.49;78.19
64792;BME280;51226;47.504;19.074;2022-11-06T12:04:06;100468.72;;;13.55;77.77
64792;BME280;51226;47.504;19.074;2022-11-06T12:07:22;100465.38;;;13.61;77.24
64792;BME280;51226;47.504;19.074;2022-11-06T12:10:39;100465.94;;;13.82;76.98
64792;BME280;51226;47.504;19.074;2022-11-06T12:13:43;100459.62;;;14.09;76.20
64792;BME280;51226;47.504;19.074;2022-11-06T12:16:51;100465.47;;;14.34;75.09
64792;BME280;51226;47.504;19.074;2022-11-06T12:19:56;100464.37;;;14.60;73.25
64792;BME280;51226;47.504;19.074;2022-11-06T12:23:01;100459.56;;;14.80;72.08
64792;BME280;51226;47.504;19.074;2022-11-06T12:26:06;100465.28;;;15.02;71.27
64792;BME280;51226;47.504;19.074;2022-11-06T12:29:18;100459.47;;;15.17;69.99
64792;BME280;51226;47.504;19.074;2022-11-06T12:32:36;100462.12;;;15.20;71.11
64792;BME280;51226;47.504;19.074;2022-11-06T12:35:46;100462.19;;;15.23;70.63
64792;BME280;51226;47.504;19.074;2022-11-06T12:39:03;100465.00;;;15.31;70.97
64792;BME280;51226;47.504;19.074;2022-11-06T12:42:11;100464.63;;;15.58;67.61
64792;BME280;51226;47.504;19.074;2022-11-06T12:45:14;100465.56;;;15.62;67.70
64792;BME280;51226;47.504;19.074;2022-11-06T12:48:38;100463.09;;;15.69;67.38
64792;BME280;51226;47.504;19.074;2022-11-06T13:08:55;100472.69;;;15.22;69.19
64792;BME280;51226;47.504;19.074;2022-11-06T13:12:11;100476.88;;;15.13;69.55
64792;BME280;51226;47.504;19.074;2022-11-06T13:18:49;100467.75;;;14.94;69.29
64792;BME280;51226;47.504;19.074;2022-11-06T13:25:28;100469.94;;;14.74;69.38
64792;BME280;51226;47.504;19.074;2022-11-06T13:28:47;100468.78;;;14.63;69.67
64792;BME280;51226;47.504;19.074;2022-11-06T13:31:55;100465.91;;;14.52;69.91
64792;BME280;51226;47.504;19.074;2022-11-06T13:35:04;100472.78;;;14.47;71.15
64792;BME280;51226;47.504;19.074;2022-11-06T13:38:12;100469.25;;;14.45;70.69
64792;BME280;51226;47.504;19.074;2022-11-06T13:41:27;100467.34;;;14.39;70.57
64792;BME280;51226;47.504;19.074;2022-11-06T13:44:30;100466.28;;;14.31;71.42
64792;BME280;51226;47.504;19.074;2022-11-06T13:47:46;100463.59;;;14.30;71.85
64792;BME280;51226;47.504;19.074;2022-11-06T13:51:02;100457.44;;;14.27;71.63
64792;BME280;51226;47.504;19.074;2022-11-06T14:04:40;100447.50;;;14.14;72.83
64792;BME280;51226;47.504;19.074;2022-11-06T14:07:56;100442.31;;;14.16;73.38
64792;BME280;51226;47.504;19.074;2022-11-06T14:11:14;100440.63;;;14.19;73.06
64792;BME280;51226;47.504;19.074;2022-11-06T14:17:59;100437.84;;;14.12;72.96
64792;BME280;51226;47.504;19.074;2022-11-06T14:24:53;100441.06;;;14.01;72.97
64792;BME280;51226;47.504;19.074;2022-11-06T14:28:05;100441.84;;;13.97;72.58
64792;BME280;51226;47.504;19.074;2022-11-06T14:31:09;100445.28;;;13.95;73.40
64792;BME280;51226;47.504;19.074;2022-11-06T14:34:31;100440.91;;;13.94;73.64
64792;BME280;51226;47.504;19.074;2022-11-06T14:40:43;100437.31;;;13.90;73.69
64792;BME280;51226;47.504;19.074;2022-11-06T14:43:49;100445.06;;;13.85;74.39
64792;BME280;51226;47.504;19.074;2022-11-06T14:46:56;100439.81;;;13.85;74.41
64792;BME280;51226;47.504;19.074;2022-11-06T14:50:03;100446.66;;;13.80;74.40
64792;BME280;51226;47.504;19.074;2022-11-06T14:53:22;100447.31;;;13.71;74.41
64792;BME280;51226;47.504;19.074;2022-11-06T14:56:30;100448.81;;;13.62;74.83
64792;BME280;51226;47.504;19.074;2022-11-06T14:59:36;100450.47;;;13.60;75.43
64792;BME280;51226;47.504;19.074;2022-11-06T15:02:40;100454.75;;;13.56;75.74
64792;BME280;51226;47.504;19.074;2022-11-06T15:05:44;100450.28;;;13.52;76.04
64792;BME280;51226;47.504;19.074;2022-11-06T15:09:05;100460.59;;;13.46;76.32
64792;BME280;51226;47.504;19.074;2022-11-06T15:12:09;100460.41;;;13.40;76.36
64792;BME280;51226;47.504;19.074;2022-11-06T15:15:16;100464.59;;;13.33;76.67
64792;BME280;51226;47.504;19.074;2022-11-06T15:18:21;100464.31;;;13.24;76.93
64792;BME280;51226;47.504;19.074;2022-11-06T15:21:29;100465.88;;;13.17;76.96
64792;BME280;51226;47.504;19.074;2022-11-06T15:24:37;100467.37;;;13.09;77.31
64792;BME280;51226;47.504;19.074;2022-11-06T15:27:47;100468.94;;;13.02;78.12
64792;BME280;51226;47.504;19.074;2022-11-06T15:30:56;100471.41;;;12.97;78.46
64792;BME280;51226;47.504;19.074;2022-11-06T15:34:07;100473.81;;;12.90;78.90
64792;BME280;51226;47.504;19.074;2022-11-06T15:37:23;100464.94;;;12.85;79.38
64792;BME280;51226;47.504;19.074;2022-11-06T15:40:31;100470.03;;;12.80;80.03
64792;BME280;51226;47.504;19.074;2022-11-06T15:43:35;100466.50;;;12.78;80.58
64792;BME280;51226;47.504;19.074;2022-11-06T15:46:57;100470.72;;;12.74;80.87
64792;BME280;51226;47.504;19.074;2022-11-06T15:50:30;100460.19;;;12.73;81.24
64792;BME280;51226;47.504;19.074;2022-11-06T15:53:33;100464.47;;;12.69;81.60
64792;BME280;51226;47.504;19.074;2022-11-06T15:56:42;100474.03;;;12.69;81.95
64792;BME280;51226;47.504;19.074;2022-11-06T15:59:46;100467.84;;;12.65;82.30
64792;BME280;51226;47.504;19.074;2022-11-06T16:02:59;100467.84;;;12.65;82.61
64792;BME280;51226;47.504;19.074;2022-11-06T16:06:03;100473.06;;;12.65;82.83
64792;BME280;51226;47.504;19.074;2022-11-06T16:09:14;100474.75;;;12.63;83.09
64792;BME280;51226;47.504;19.074;2022-11-06T16:12:18;100479.03;;;12.61;83.33
64792;BME280;51226;47.504;19.074;2022-11-06T16:18:52;100467.59;;;12.57;83.49
64792;BME280;51226;47.504;19.074;2022-11-06T16:21:56;100478.81;;;12.53;83.52
64792;BME280;51226;47.504;19.074;2022-11-06T16:25:02;100477.84;;;12.50;83.72
64792;BME280;51226;47.504;19.074;2022-11-06T16:28:18;100478.56;;;12.46;83.98
64792;BME280;51226;47.504;19.074;2022-11-06T16:31:23;100475.84;;;12.42;84.11
64792;BME280;51226;47.504;19.074;2022-11-06T16:37:37;100481.81;;;12.38;84.82
64792;BME280;51226;47.504;19.074;2022-11-06T16:40:46;100482.75;;;12.40;85.06
64792;BME280;51226;47.504;19.074;2022-11-06T16:47:31;100478.50;;;12.44;85.46
64792;BME280;51226;47.504;19.074;2022-11-06T16:50:47;100477.53;;;12.40;85.83
64792;BME280;51226;47.504;19.074;2022-11-06T16:53:57;100474.09;;;12.41;86.01
64792;BME280;51226;47.504;19.074;2022-11-06T16:57:12;100475.78;;;12.41;86.29
64792;BME280;51226;47.504;19.074;2022-11-06T17:00:27;100485.38;;;12.40;86.34
64792;BME280;51226;47.504;19.074;2022-11-06T17:03:57;100479.09;;;12.35;86.45
64792;BME280;51226;47.504;19.074;2022-11-06T17:07:01;100477.31;;;12.34;86.30
64792;BME280;51226;47.504;19.074;2022-11-06T17:13:35;100477.03;;;12.25;86.31
64792;BME280;51226;47.504;19.074;2022-11-06T17:16:47;100480.38;;;12.21;86.32
64792;BME280;51226;47.504;19.074;2022-11-06T17:19:51;100490.75;;;12.18;86.45
64792;BME280;51226;47.504;19.074;2022-11-06T17:22:54;100493.22;;;12.13;86.88
64792;BME280;51226;47.504;19.074;2022-11-06T17:26:02;100486.12;;;12.11;87.10
64792;BME280;51226;47.504;19.074;2022-11-06T17:29:06;100487.81;;;12.09;86.94
64792;BME280;51226;47.504;19.074;2022-11-06T17:32:14;100498.13;;;12.04;86.83
64792;BME280;51226;47.504;19.074;2022-11-06T17:35:16;100506.75;;;12.01;86.56
64792;BME280;51226;47.504;19.074;2022-11-06T17:38:19;100501.53;;;12.01;86.19
64792;BME280;51226;47.504;19.074;2022-11-06T17:41:23;100499.53;;;11.94;86.34
64792;BME280;51226;47.504;19.074;2022-11-06T17:44:32;100506.44;;;11.92;86.22
64792;BME280;51226;47.504;19.074;2022-11-06T17:47:35;100510.47;;;11.84;86.25
64792;BME280;51226;47.504;19.074;2022-11-06T17:50:38;100510.59;;;11.87;86.10
64792;BME280;51226;47.504;19.074;2022-11-06T17:54:02;100516.38;;;11.78;86.45
64792;BME280;51226;47.504;19.074;2022-11-06T17:57:06;100505.75;;;11.74;86.41
64792;BME280;51226;47.504;19.074;2022-11-06T18:00:11;100505.66;;;11.71;86.21